Portada
METAR-TAF:

METAR-TAF

Aeroports :

Diego Garcia, Territori Britànic de l'Oceà Índic

latitud: 07-18S, longitud: 072-24E, altitud: 1 m

Observació

L'informe es va fer fa 1 hora i 1 minuts, a les 19:55 UTC
Vent 7 kt del Est
Temperatura 28°C
Humitat 74%
Pressió 1010 hPa
Visibilitat 10 km o més
Escasses núvols a una alçada de 2700 ft
Núvols disperses a una alçada de 25000 ft

METAR: FJDG 131955Z 08007KT 9999 FEW027 SCT250 28/23 A2983 RMK SLP098 T02760227

Hora: 02:56 (20:56 UTC)

Pronòstic

L'informe es va fer fa 3 hores i 56 minuts, a les 17:00 UTC
Pronòstic vàlid del 13 a les 17 UTC al 14 a les 23 UTC
Vent 12 kt del Est
Visibilitat 10 km o més
Escasses núvols a una alçada de 3000 ft

TAF: FJDG 131700Z 1317/1423 08012KT 9999 FEW030 QNH2976INS TX34/1408Z TN27/1322Z

Observacions i pronòstics meteorològics de més de 4000 aeroports (METAR i TAF).

Les estacions disponibles són els punts grocs i vermells al mapa.

Posi el ratolí al punt desitjat per veure el nom de l'estació.

Feu clic per veure les observacions i els pronòstics meteorològics.

Per canviar el mapa: feu clic els botons verds amb una creu de color negre per apropar; al botó verd amb un guió per allunyar la imatge; o en les fletxes verdes per a mapes adjacents.


METAR-TAF: